Lod/Ben Gurion Airport, Israel

12:09 AM IST on December 09, 2016 (GMT +0200)
Ben-Shemen | | Change Station

Elev 197 ft 31.95 °N, 34.92 °E | Updated 3 minutes ago

Clear
Clear
48.0 °F
Feels Like 48 °F
N
0.0
Wind Variable Wind from North
Gusts 0.0 mph

Today
High -- | Low -- °F
--% Chance of Precip.
Yesterday
High -- | Low -- °F
Precip. -- in
Pressure 30.27 in
Visibility -9999.0 miles
Clouds
Windchill 48 °F
Dew Point 48 °F
Humidity 99%
Rainfall 0.00 in
Snow Depth Not available.
6:29 AM 4:36 PM
Waxing Gibbous, 67% visible
METAR LLBG 082150Z 03009KT CAVOK 12/07 Q1025 NOSIG
Pressure 30.27 in
Visibility -9999.0 miles
Clouds
Windchill 48 °F
Dew Point 48 °F
Humidity 99%
Rainfall 0.00 in
Snow Depth Not available.
6:29 AM 4:36 PM
Waxing Gibbous, 67% visible
METAR LLBG 082150Z 03009KT CAVOK 12/07 Q1025 NOSIG

10-Day Weather Forecast

No radar image for this location.
×

Almanac

Astronomy

Dec. 09, 2016 Rise Set
Actual Time
Civil Twilight
Nautical Twilight
Astronomical Twilight
Moon
Length of Visible Light
Length of Day
Tomorrow will be .
, % of the Moon is Illuminated

Today's Extremes

Country Highs Country Lows

Community

WunderPhotos

Upload Photos

1,956,277 photos uploaded!

WunderBlog® & News

Nearby

Air Quality

  Air Quality AQ Index Pollutant
Not available.

Snow Depth

Station Depth Elevation

Earthquake Activity

City Distance Mag. Time & Date
Minimum magnitude displayed is 2.5.

Coastal Water Temperatures

Place Temperature

Stations

Nearby Weather Stations

Station Location Temp. Windchill Dew Point Humidity Wind Precip. Elev Updated Type